sensor_id;sensor_type;location;lat;lon;timestamp;temperature;humidity
75517;DHT22;64097;52.548;13.406;2023-04-19T00:00:19;12.70;49.40
75517;DHT22;64097;52.548;13.406;2023-04-19T00:02:45;12.70;49.60
75517;DHT22;64097;52.548;13.406;2023-04-19T00:05:13;12.70;49.40
75517;DHT22;64097;52.548;13.406;2023-04-19T00:07:39;12.70;49.00
75517;DHT22;64097;52.548;13.406;2023-04-19T00:10:06;12.70;49.00
75517;DHT22;64097;52.548;13.406;2023-04-19T00:12:32;12.70;48.80
75517;DHT22;64097;52.548;13.406;2023-04-19T00:14:57;12.70;48.70
75517;DHT22;64097;52.548;13.406;2023-04-19T00:17:23;12.70;48.40
75517;DHT22;64097;52.548;13.406;2023-04-19T00:19:49;12.70;48.30
75517;DHT22;64097;52.548;13.406;2023-04-19T00:22:15;12.70;48.00
75517;DHT22;64097;52.548;13.406;2023-04-19T00:24:41;12.70;47.80
75517;DHT22;64097;52.548;13.406;2023-04-19T00:27:07;12.70;47.80
75517;DHT22;64097;52.548;13.406;2023-04-19T00:29:33;12.70;47.70
75517;DHT22;64097;52.548;13.406;2023-04-19T00:31:58;12.60;47.50
75517;DHT22;64097;52.548;13.406;2023-04-19T00:34:24;12.60;47.30
75517;DHT22;64097;52.548;13.406;2023-04-19T00:36:50;12.60;47.20
75517;DHT22;64097;52.548;13.406;2023-04-19T00:39:16;12.60;47.10
75517;DHT22;64097;52.548;13.406;2023-04-19T00:41:42;12.60;46.90
75517;DHT22;64097;52.548;13.406;2023-04-19T00:44:07;12.60;46.70
75517;DHT22;64097;52.548;13.406;2023-04-19T00:46:33;12.60;46.80
75517;DHT22;64097;52.548;13.406;2023-04-19T00:48:59;12.60;46.60
75517;DHT22;64097;52.548;13.406;2023-04-19T00:51:25;12.60;46.60
75517;DHT22;64097;52.548;13.406;2023-04-19T00:53:51;12.50;46.60
75517;DHT22;64097;52.548;13.406;2023-04-19T00:56:18;12.50;46.70
75517;DHT22;64097;52.548;13.406;2023-04-19T00:58:46;12.50;46.80
75517;DHT22;64097;52.548;13.406;2023-04-19T01:01:12;12.50;47.00
75517;DHT22;64097;52.548;13.406;2023-04-19T01:03:38;12.50;46.80
75517;DHT22;64097;52.548;13.406;2023-04-19T01:06:04;12.40;46.70
75517;DHT22;64097;52.548;13.406;2023-04-19T01:08:31;12.40;46.80
75517;DHT22;64097;52.548;13.406;2023-04-19T01:10:57;12.30;46.50
75517;DHT22;64097;52.548;13.406;2023-04-19T01:13:22;12.30;46.60
75517;DHT22;64097;52.548;13.406;2023-04-19T01:15:48;12.20;46.60
75517;DHT22;64097;52.548;13.406;2023-04-19T01:18:15;12.20;46.70
75517;DHT22;64097;52.548;13.406;2023-04-19T01:20:41;12.20;46.80
75517;DHT22;64097;52.548;13.406;2023-04-19T01:23:07;12.10;46.80
75517;DHT22;64097;52.548;13.406;2023-04-19T01:25:36;12.10;47.00
75517;DHT22;64097;52.548;13.406;2023-04-19T01:28:02;12.10;47.10
75517;DHT22;64097;52.548;13.406;2023-04-19T01:30:27;12.00;47.10
75517;DHT22;64097;52.548;13.406;2023-04-19T01:32:53;12.00;47.00
75517;DHT22;64097;52.548;13.406;2023-04-19T01:35:19;12.00;47.20
75517;DHT22;64097;52.548;13.406;2023-04-19T01:37:45;11.90;47.20
75517;DHT22;64097;52.548;13.406;2023-04-19T01:40:11;11.90;47.30
75517;DHT22;64097;52.548;13.406;2023-04-19T01:42:37;11.90;47.40
75517;DHT22;64097;52.548;13.406;2023-04-19T01:45:03;11.80;47.40
75517;DHT22;64097;52.548;13.406;2023-04-19T01:47:29;11.80;47.40
75517;DHT22;64097;52.548;13.406;2023-04-19T01:49:55;11.80;47.40
75517;DHT22;64097;52.548;13.406;2023-04-19T01:52:21;11.80;47.50
75517;DHT22;64097;52.548;13.406;2023-04-19T01:54:46;11.70;47.50
75517;DHT22;64097;52.548;13.406;2023-04-19T01:57:12;11.70;47.70
75517;DHT22;64097;52.548;13.406;2023-04-19T01:59:40;11.70;47.80
75517;DHT22;64097;52.548;13.406;2023-04-19T02:02:06;11.70;47.90
75517;DHT22;64097;52.548;13.406;2023-04-19T02:04:33;11.60;47.90
75517;DHT22;64097;52.548;13.406;2023-04-19T02:06:59;11.60;48.00
75517;DHT22;64097;52.548;13.406;2023-04-19T02:09:24;11.60;48.10
75517;DHT22;64097;52.548;13.406;2023-04-19T02:11:50;11.60;48.10
75517;DHT22;64097;52.548;13.406;2023-04-19T02:14:16;11.60;48.10
75517;DHT22;64097;52.548;13.406;2023-04-19T02:16:42;11.60;48.20
75517;DHT22;64097;52.548;13.406;2023-04-19T02:19:07;11.60;48.30
75517;DHT22;64097;52.548;13.406;2023-04-19T02:21:33;11.50;48.30
75517;DHT22;64097;52.548;13.406;2023-04-19T02:23:59;11.50;48.40
75517;DHT22;64097;52.548;13.406;2023-04-19T02:26:25;11.50;48.50
75517;DHT22;64097;52.548;13.406;2023-04-19T02:28:51;11.50;48.40
75517;DHT22;64097;52.548;13.406;2023-04-19T02:31:17;11.50;48.40
75517;DHT22;64097;52.548;13.406;2023-04-19T02:33:43;11.50;48.50
75517;DHT22;64097;52.548;13.406;2023-04-19T02:36:11;11.50;48.40
75517;DHT22;64097;52.548;13.406;2023-04-19T02:38:36;11.50;48.40
75517;DHT22;64097;52.548;13.406;2023-04-19T02:41:02;11.50;48.40
75517;DHT22;64097;52.548;13.406;2023-04-19T02:43:29;11.40;48.60
75517;DHT22;64097;52.548;13.406;2023-04-19T02:45:55;11.40;49.40
75517;DHT22;64097;52.548;13.406;2023-04-19T02:48:20;11.40;48.90
75517;DHT22;64097;52.548;13.406;2023-04-19T02:50:46;11.40;49.00
75517;DHT22;64097;52.548;13.406;2023-04-19T02:53:12;11.40;49.10
75517;DHT22;64097;52.548;13.406;2023-04-19T02:55:38;11.40;49.10
75517;DHT22;64097;52.548;13.406;2023-04-19T02:58:03;11.40;49.20
75517;DHT22;64097;52.548;13.406;2023-04-19T03:00:29;11.30;49.30
75517;DHT22;64097;52.548;13.406;2023-04-19T03:02:55;11.30;49.30
75517;DHT22;64097;52.548;13.406;2023-04-19T03:05:22;11.30;49.40
75517;DHT22;64097;52.548;13.406;2023-04-19T03:07:48;11.30;49.50
75517;DHT22;64097;52.548;13.406;2023-04-19T03:10:14;11.30;49.60
75517;DHT22;64097;52.548;13.406;2023-04-19T03:12:39;11.20;49.60
75517;DHT22;64097;52.548;13.406;2023-04-19T03:15:06;11.20;49.60
75517;DHT22;64097;52.548;13.406;2023-04-19T03:17:32;11.20;49.80
75517;DHT22;64097;52.548;13.406;2023-04-19T03:19:58;11.20;50.00
75517;DHT22;64097;52.548;13.406;2023-04-19T03:22:23;11.10;50.00
75517;DHT22;64097;52.548;13.406;2023-04-19T03:24:49;11.10;50.10
75517;DHT22;64097;52.548;13.406;2023-04-19T03:27:15;11.10;50.10
75517;DHT22;64097;52.548;13.406;2023-04-19T03:29:40;11.10;50.30
75517;DHT22;64097;52.548;13.406;2023-04-19T03:32:06;11.10;50.40
75517;DHT22;64097;52.548;13.406;2023-04-19T03:34:32;11.10;50.60
75517;DHT22;64097;52.548;13.406;2023-04-19T03:36:58;11.00;50.70
75517;DHT22;64097;52.548;13.406;2023-04-19T03:39:23;11.00;50.80
75517;DHT22;64097;52.548;13.406;2023-04-19T03:41:49;11.00;51.10
75517;DHT22;64097;52.548;13.406;2023-04-19T03:44:15;11.00;51.20
75517;DHT22;64097;52.548;13.406;2023-04-19T03:46:41;11.00;51.30
75517;DHT22;64097;52.548;13.406;2023-04-19T03:49:07;10.90;51.50
75517;DHT22;64097;52.548;13.406;2023-04-19T03:51:32;10.90;51.60
75517;DHT22;64097;52.548;13.406;2023-04-19T03:53:59;10.90;51.80
75517;DHT22;64097;52.548;13.406;2023-04-19T03:56:24;10.90;52.10
75517;DHT22;64097;52.548;13.406;2023-04-19T03:58:50;10.90;52.30
75517;DHT22;64097;52.548;13.406;2023-04-19T04:01:18;10.90;52.40
75517;DHT22;64097;52.548;13.406;2023-04-19T04:03:43;10.80;52.70
75517;DHT22;64097;52.548;13.406;2023-04-19T04:06:09;10.80;52.80
75517;DHT22;64097;52.548;13.406;2023-04-19T04:08:35;10.70;52.90
75517;DHT22;64097;52.548;13.406;2023-04-19T04:11:00;10.70;53.10
75517;DHT22;64097;52.548;13.406;2023-04-19T04:13:26;10.70;53.20
75517;DHT22;64097;52.548;13.406;2023-04-19T04:15:52;10.70;53.30
75517;DHT22;64097;52.548;13.406;2023-04-19T04:18:17;10.70;53.50
75517;DHT22;64097;52.548;13.406;2023-04-19T04:20:43;10.70;53.70
75517;DHT22;64097;52.548;13.406;2023-04-19T04:23:09;10.60;53.80
75517;DHT22;64097;52.548;13.406;2023-04-19T04:25:35;10.60;53.80
75517;DHT22;64097;52.548;13.406;2023-04-19T04:28:02;10.60;53.90
75517;DHT22;64097;52.548;13.406;2023-04-19T04:30:28;10.60;54.00
75517;DHT22;64097;52.548;13.406;2023-04-19T04:32:54;10.60;54.10
75517;DHT22;64097;52.548;13.406;2023-04-19T04:35:22;10.60;54.30
75517;DHT22;64097;52.548;13.406;2023-04-19T04:37:48;10.60;54.30
75517;DHT22;64097;52.548;13.406;2023-04-19T04:40:14;10.60;54.50
75517;DHT22;64097;52.548;13.406;2023-04-19T04:42:40;10.60;54.70
75517;DHT22;64097;52.548;13.406;2023-04-19T04:45:07;10.60;54.70
75517;DHT22;64097;52.548;13.406;2023-04-19T04:47:35;10.60;54.80
75517;DHT22;64097;52.548;13.406;2023-04-19T04:50:01;10.60;54.90
75517;DHT22;64097;52.548;13.406;2023-04-19T04:52:27;10.60;55.10
75517;DHT22;64097;52.548;13.406;2023-04-19T04:54:53;10.60;55.20
75517;DHT22;64097;52.548;13.406;2023-04-19T04:57:19;10.60;55.20
75517;DHT22;64097;52.548;13.406;2023-04-19T04:59:45;10.60;55.40
75517;DHT22;64097;52.548;13.406;2023-04-19T05:02:13;10.60;55.50
75517;DHT22;64097;52.548;13.406;2023-04-19T05:04:39;10.60;55.70
75517;DHT22;64097;52.548;13.406;2023-04-19T05:07:05;10.60;55.80
75517;DHT22;64097;52.548;13.406;2023-04-19T05:09:30;10.60;55.80
75517;DHT22;64097;52.548;13.406;2023-04-19T05:11:56;10.60;55.90
75517;DHT22;64097;52.548;13.406;2023-04-19T05:14:22;10.50;56.00
75517;DHT22;64097;52.548;13.406;2023-04-19T05:16:47;10.60;56.10
75517;DHT22;64097;52.548;13.406;2023-04-19T05:19:13;10.60;56.20
75517;DHT22;64097;52.548;13.406;2023-04-19T05:21:39;10.60;56.20
75517;DHT22;64097;52.548;13.406;2023-04-19T05:24:05;10.60;56.20
75517;DHT22;64097;52.548;13.406;2023-04-19T05:26:31;10.60;56.20
75517;DHT22;64097;52.548;13.406;2023-04-19T05:28:57;10.60;56.30
75517;DHT22;64097;52.548;13.406;2023-04-19T05:31:23;10.60;56.40
75517;DHT22;64097;52.548;13.406;2023-04-19T05:33:48;10.70;57.10
75517;DHT22;64097;52.548;13.406;2023-04-19T05:36:14;10.70;56.40
75517;DHT22;64097;52.548;13.406;2023-04-19T05:38:40;10.70;56.50
75517;DHT22;64097;52.548;13.406;2023-04-19T05:41:06;10.70;56.40
75517;DHT22;64097;52.548;13.406;2023-04-19T05:43:31;10.70;56.50
75517;DHT22;64097;52.548;13.406;2023-04-19T05:45:57;10.80;56.50
75517;DHT22;64097;52.548;13.406;2023-04-19T05:48:23;10.70;56.50
75517;DHT22;64097;52.548;13.406;2023-04-19T05:50:50;10.70;56.50
75517;DHT22;64097;52.548;13.406;2023-04-19T05:53:18;10.80;56.50
75517;DHT22;64097;52.548;13.406;2023-04-19T05:55:44;10.80;56.40
75517;DHT22;64097;52.548;13.406;2023-04-19T05:58:10;10.90;56.40
75517;DHT22;64097;52.548;13.406;2023-04-19T06:00:35;10.90;56.30
75517;DHT22;64097;52.548;13.406;2023-04-19T06:03:02;10.90;56.30
75517;DHT22;64097;52.548;13.406;2023-04-19T06:05:28;10.90;56.20
75517;DHT22;64097;52.548;13.406;2023-04-19T06:07:53;10.90;56.20
75517;DHT22;64097;52.548;13.406;2023-04-19T06:10:21;11.00;56.20
75517;DHT22;64097;52.548;13.406;2023-04-19T06:12:47;11.10;56.20
75517;DHT22;64097;52.548;13.406;2023-04-19T06:15:13;11.10;56.10
75517;DHT22;64097;52.548;13.406;2023-04-19T06:17:39;11.20;55.90
75517;DHT22;64097;52.548;13.406;2023-04-19T06:20:06;11.20;55.80
75517;DHT22;64097;52.548;13.406;2023-04-19T06:22:32;11.30;55.80
75517;DHT22;64097;52.548;13.406;2023-04-19T06:24:59;11.30;55.60
75517;DHT22;64097;52.548;13.406;2023-04-19T06:27:25;11.30;55.50
75517;DHT22;64097;52.548;13.406;2023-04-19T06:29:51;11.30;55.50
75517;DHT22;64097;52.548;13.406;2023-04-19T06:32:17;11.30;55.40
75517;DHT22;64097;52.548;13.406;2023-04-19T06:34:44;11.40;55.40
75517;DHT22;64097;52.548;13.406;2023-04-19T06:37:09;11.40;55.30
75517;DHT22;64097;52.548;13.406;2023-04-19T06:39:35;11.40;55.00
75517;DHT22;64097;52.548;13.406;2023-04-19T06:42:01;11.40;54.90
75517;DHT22;64097;52.548;13.406;2023-04-19T06:44:27;11.50;54.90
75517;DHT22;64097;52.548;13.406;2023-04-19T06:46:52;11.50;54.80
75517;DHT22;64097;52.548;13.406;2023-04-19T06:49:18;11.50;54.70
75517;DHT22;64097;52.548;13.406;2023-04-19T06:51:44;11.50;54.50
75517;DHT22;64097;52.548;13.406;2023-04-19T06:54:10;11.60;54.20
75517;DHT22;64097;52.548;13.406;2023-04-19T06:56:42;11.70;54.00
75517;DHT22;64097;52.548;13.406;2023-04-19T06:59:12;11.70;53.90
75517;DHT22;64097;52.548;13.406;2023-04-19T07:01:38;11.70;53.50
75517;DHT22;64097;52.548;13.406;2023-04-19T07:04:05;11.80;53.20
75517;DHT22;64097;52.548;13.406;2023-04-19T07:06:33;11.80;53.00
75517;DHT22;64097;52.548;13.406;2023-04-19T07:08:59;11.90;52.90
75517;DHT22;64097;52.548;13.406;2023-04-19T07:11:24;11.90;52.80
75517;DHT22;64097;52.548;13.406;2023-04-19T07:13:51;12.00;52.60
75517;DHT22;64097;52.548;13.406;2023-04-19T07:16:16;12.10;52.40
75517;DHT22;64097;52.548;13.406;2023-04-19T07:18:42;12.10;52.30
75517;DHT22;64097;52.548;13.406;2023-04-19T07:21:09;12.20;52.00
75517;DHT22;64097;52.548;13.406;2023-04-19T07:23:34;12.20;51.40
75517;DHT22;64097;52.548;13.406;2023-04-19T07:26:00;12.30;50.70
75517;DHT22;64097;52.548;13.406;2023-04-19T07:28:29;12.30;50.20
75517;DHT22;64097;52.548;13.406;2023-04-19T07:30:55;12.40;50.20
75517;DHT22;64097;52.548;13.406;2023-04-19T07:33:22;12.40;49.60
75517;DHT22;64097;52.548;13.406;2023-04-19T07:35:49;12.50;49.40
75517;DHT22;64097;52.548;13.406;2023-04-19T07:38:16;12.50;49.50
75517;DHT22;64097;52.548;13.406;2023-04-19T07:40:42;12.50;49.40
75517;DHT22;64097;52.548;13.406;2023-04-19T07:43:07;12.50;49.30
75517;DHT22;64097;52.548;13.406;2023-04-19T07:45:34;12.60;49.00
75517;DHT22;64097;52.548;13.406;2023-04-19T07:48:00;12.70;48.90
75517;DHT22;64097;52.548;13.406;2023-04-19T07:50:25;12.70;48.60
75517;DHT22;64097;52.548;13.406;2023-04-19T07:52:51;12.70;48.80
75517;DHT22;64097;52.548;13.406;2023-04-19T07:55:17;12.80;48.80
75517;DHT22;64097;52.548;13.406;2023-04-19T07:57:43;12.90;48.10
75517;DHT22;64097;52.548;13.406;2023-04-19T08:00:16;12.90;47.90
75517;DHT22;64097;52.548;13.406;2023-04-19T08:02:46;13.00;47.70
75517;DHT22;64097;52.548;13.406;2023-04-19T08:05:13;13.10;47.20
75517;DHT22;64097;52.548;13.406;2023-04-19T08:07:41;13.10;46.40
75517;DHT22;64097;52.548;13.406;2023-04-19T08:10:08;13.20;46.70
75517;DHT22;64097;52.548;13.406;2023-04-19T08:12:35;13.20;46.70
75517;DHT22;64097;52.548;13.406;2023-04-19T08:15:02;13.30;46.40
75517;DHT22;64097;52.548;13.406;2023-04-19T08:17:27;13.30;46.00
75517;DHT22;64097;52.548;13.406;2023-04-19T08:19:53;13.30;45.60
75517;DHT22;64097;52.548;13.406;2023-04-19T08:22:19;13.40;45.10
75517;DHT22;64097;52.548;13.406;2023-04-19T08:24:48;13.40;45.00
75517;DHT22;64097;52.548;13.406;2023-04-19T08:27:15;13.50;44.50
75517;DHT22;64097;52.548;13.406;2023-04-19T08:29:41;13.50;44.60
75517;DHT22;64097;52.548;13.406;2023-04-19T08:32:07;13.60;44.30
75517;DHT22;64097;52.548;13.406;2023-04-19T08:34:36;13.60;44.30
75517;DHT22;64097;52.548;13.406;2023-04-19T08:37:02;13.70;44.10
75517;DHT22;64097;52.548;13.406;2023-04-19T08:39:29;13.70;43.80
75517;DHT22;64097;52.548;13.406;2023-04-19T08:41:55;13.80;43.90
75517;DHT22;64097;52.548;13.406;2023-04-19T08:44:24;13.80;43.60
75517;DHT22;64097;52.548;13.406;2023-04-19T08:46:50;13.90;43.40
75517;DHT22;64097;52.548;13.406;2023-04-19T08:49:16;13.90;42.90
75517;DHT22;64097;52.548;13.406;2023-04-19T08:51:47;13.90;42.70
75517;DHT22;64097;52.548;13.406;2023-04-19T08:54:14;14.00;43.10
75517;DHT22;64097;52.548;13.406;2023-04-19T08:56:41;14.00;42.70
75517;DHT22;64097;52.548;13.406;2023-04-19T08:59:06;14.10;43.10
75517;DHT22;64097;52.548;13.406;2023-04-19T09:01:32;14.20;42.30
75517;DHT22;64097;52.548;13.406;2023-04-19T09:03:58;14.30;42.60
75517;DHT22;64097;52.548;13.406;2023-04-19T09:06:23;14.40;42.40
75517;DHT22;64097;52.548;13.406;2023-04-19T09:08:50;14.40;42.10
75517;DHT22;64097;52.548;13.406;2023-04-19T09:11:35;14.50;42.00
75517;DHT22;64097;52.548;13.406;2023-04-19T09:14:10;14.60;42.10
75517;DHT22;64097;52.548;13.406;2023-04-19T09:16:35;14.70;41.90
75517;DHT22;64097;52.548;13.406;2023-04-19T09:19:05;14.80;41.10
75517;DHT22;64097;52.548;13.406;2023-04-19T09:21:31;14.80;40.90
75517;DHT22;64097;52.548;13.406;2023-04-19T09:23:58;14.80;40.30
75517;DHT22;64097;52.548;13.406;2023-04-19T09:26:25;14.80;40.30
75517;DHT22;64097;52.548;13.406;2023-04-19T09:29:01;14.90;40.20
75517;DHT22;64097;52.548;13.406;2023-04-19T09:31:29;14.90;40.50
75517;DHT22;64097;52.548;13.406;2023-04-19T09:33:55;15.00;41.00
75517;DHT22;64097;52.548;13.406;2023-04-19T09:36:28;15.10;40.40
75517;DHT22;64097;52.548;13.406;2023-04-19T09:38:54;15.10;40.10
75517;DHT22;64097;52.548;13.406;2023-04-19T09:41:20;15.20;40.20
75517;DHT22;64097;52.548;13.406;2023-04-19T09:43:46;15.20;39.70
75517;DHT22;64097;52.548;13.406;2023-04-19T09:46:34;15.20;39.20
75517;DHT22;64097;52.548;13.406;2023-04-19T09:49:22;15.10;39.40
75517;DHT22;64097;52.548;13.406;2023-04-19T09:51:53;15.10;39.70
75517;DHT22;64097;52.548;13.406;2023-04-19T09:54:23;15.10;39.90
75517;DHT22;64097;52.548;13.406;2023-04-19T09:56:50;15.10;40.10
75517;DHT22;64097;52.548;13.406;2023-04-19T09:59:17;15.10;39.70
75517;DHT22;64097;52.548;13.406;2023-04-19T10:01:45;15.10;40.00
75517;DHT22;64097;52.548;13.406;2023-04-19T10:04:14;15.20;39.50
75517;DHT22;64097;52.548;13.406;2023-04-19T10:06:50;15.20;39.30
75517;DHT22;64097;52.548;13.406;2023-04-19T10:09:17;15.20;39.30
75517;DHT22;64097;52.548;13.406;2023-04-19T10:11:50;15.20;39.40
75517;DHT22;64097;52.548;13.406;2023-04-19T10:14:21;15.20;39.30
75517;DHT22;64097;52.548;13.406;2023-04-19T10:16:46;15.20;39.10
75517;DHT22;64097;52.548;13.406;2023-04-19T10:19:15;15.30;39.20
75517;DHT22;64097;52.548;13.406;2023-04-19T10:21:42;15.30;39.00
75517;DHT22;64097;52.548;13.406;2023-04-19T10:24:12;15.30;38.80
75517;DHT22;64097;52.548;13.406;2023-04-19T10:29:59;15.30;38.90
75517;DHT22;64097;52.548;13.406;2023-04-19T10:32:36;15.30;39.00
75517;DHT22;64097;52.548;13.406;2023-04-19T10:35:07;15.30;39.10
75517;DHT22;64097;52.548;13.406;2023-04-19T10:37:32;15.30;39.10
75517;DHT22;64097;52.548;13.406;2023-04-19T10:39:58;15.30;38.90
75517;DHT22;64097;52.548;13.406;2023-04-19T10:42:24;15.30;39.30
75517;DHT22;64097;52.548;13.406;2023-04-19T10:47:53;15.30;39.00
75517;DHT22;64097;52.548;13.406;2023-04-19T10:50:19;15.30;39.20
75517;DHT22;64097;52.548;13.406;2023-04-19T10:52:48;15.30;39.20
75517;DHT22;64097;52.548;13.406;2023-04-19T10:55:18;15.40;39.00
75517;DHT22;64097;52.548;13.406;2023-04-19T10:58:03;15.40;39.00
75517;DHT22;64097;52.548;13.406;2023-04-19T11:00:30;15.40;39.40
75517;DHT22;64097;52.548;13.406;2023-04-19T11:06:17;15.50;39.60
75517;DHT22;64097;52.548;13.406;2023-04-19T11:08:52;15.50;39.80
75517;DHT22;64097;52.548;13.406;2023-04-19T11:11:18;15.60;39.40
75517;DHT22;64097;52.548;13.406;2023-04-19T11:13:47;15.70;39.50
75517;DHT22;64097;52.548;13.406;2023-04-19T11:16:13;15.70;39.40
75517;DHT22;64097;52.548;13.406;2023-04-19T11:18:38;15.70;39.40
75517;DHT22;64097;52.548;13.406;2023-04-19T11:21:04;15.80;39.50
75517;DHT22;64097;52.548;13.406;2023-04-19T11:23:30;15.80;38.80
75517;DHT22;64097;52.548;13.406;2023-04-19T11:25:55;15.80;38.60
75517;DHT22;64097;52.548;13.406;2023-04-19T11:28:21;15.80;38.80
75517;DHT22;64097;52.548;13.406;2023-04-19T11:30:48;15.80;39.20
75517;DHT22;64097;52.548;13.406;2023-04-19T11:33:14;15.90;39.20
75517;DHT22;64097;52.548;13.406;2023-04-19T11:35:40;15.90;38.70
75517;DHT22;64097;52.548;13.406;2023-04-19T11:38:07;16.00;38.40
75517;DHT22;64097;52.548;13.406;2023-04-19T11:40:33;16.10;38.30
75517;DHT22;64097;52.548;13.406;2023-04-19T11:43:01;16.10;38.70
75517;DHT22;64097;52.548;13.406;2023-04-19T11:45:35;16.10;38.50
75517;DHT22;64097;52.548;13.406;2023-04-19T11:48:03;16.20;38.20
75517;DHT22;64097;52.548;13.406;2023-04-19T11:50:37;16.20;37.50
75517;DHT22;64097;52.548;13.406;2023-04-19T11:53:16;16.30;37.50
75517;DHT22;64097;52.548;13.406;2023-04-19T11:55:47;16.30;37.70
75517;DHT22;64097;52.548;13.406;2023-04-19T11:58:31;16.30;38.00
75517;DHT22;64097;52.548;13.406;2023-04-19T12:01:05;16.40;38.00
75517;DHT22;64097;52.548;13.406;2023-04-19T12:03:39;16.40;38.00
75517;DHT22;64097;52.548;13.406;2023-04-19T12:06:17;16.50;37.80
75517;DHT22;64097;52.548;13.406;2023-04-19T12:08:45;16.50;38.10
75517;DHT22;64097;52.548;13.406;2023-04-19T12:11:12;16.60;37.70
75517;DHT22;64097;52.548;13.406;2023-04-19T12:13:38;16.60;37.70
75517;DHT22;64097;52.548;13.406;2023-04-19T12:16:06;16.60;37.70
75517;DHT22;64097;52.548;13.406;2023-04-19T12:18:45;16.60;37.50
75517;DHT22;64097;52.548;13.406;2023-04-19T12:21:26;16.70;37.00
75517;DHT22;64097;52.548;13.406;2023-04-19T12:23:56;16.70;37.20
75517;DHT22;64097;52.548;13.406;2023-04-19T12:26:23;16.80;37.00
75517;DHT22;64097;52.548;13.406;2023-04-19T12:28:49;16.80;37.10
75517;DHT22;64097;52.548;13.406;2023-04-19T12:31:14;16.80;37.20
75517;DHT22;64097;52.548;13.406;2023-04-19T12:33:41;16.90;36.90
75517;DHT22;64097;52.548;13.406;2023-04-19T12:36:07;17.00;36.70
75517;DHT22;64097;52.548;13.406;2023-04-19T12:38:32;17.00;36.50
75517;DHT22;64097;52.548;13.406;2023-04-19T12:40:58;17.00;36.20
75517;DHT22;64097;52.548;13.406;2023-04-19T12:43:24;16.90;36.50
75517;DHT22;64097;52.548;13.406;2023-04-19T12:45:49;16.90;36.50
75517;DHT22;64097;52.548;13.406;2023-04-19T12:48:15;16.90;37.00
75517;DHT22;64097;52.548;13.406;2023-04-19T12:50:41;16.90;37.10
75517;DHT22;64097;52.548;13.406;2023-04-19T12:53:06;16.90;36.70
75517;DHT22;64097;52.548;13.406;2023-04-19T12:55:33;16.80;36.80
75517;DHT22;64097;52.548;13.406;2023-04-19T12:57:59;16.80;36.30
75517;DHT22;64097;52.548;13.406;2023-04-19T13:00:25;16.80;36.00
75517;DHT22;64097;52.548;13.406;2023-04-19T13:02:51;16.70;36.00
75517;DHT22;64097;52.548;13.406;2023-04-19T13:05:16;16.70;36.10
75517;DHT22;64097;52.548;13.406;2023-04-19T13:07:42;16.70;36.10
75517;DHT22;64097;52.548;13.406;2023-04-19T13:10:08;16.70;36.40
75517;DHT22;64097;52.548;13.406;2023-04-19T13:12:35;16.80;36.50
75517;DHT22;64097;52.548;13.406;2023-04-19T13:15:01;16.80;36.50
75517;DHT22;64097;52.548;13.406;2023-04-19T13:17:26;16.90;36.40
75517;DHT22;64097;52.548;13.406;2023-04-19T13:19:52;16.90;35.50
75517;DHT22;64097;52.548;13.406;2023-04-19T13:22:18;17.00;34.60
75517;DHT22;64097;52.548;13.406;2023-04-19T13:24:43;17.00;33.80
75517;DHT22;64097;52.548;13.406;2023-04-19T13:27:09;17.00;33.70
75517;DHT22;64097;52.548;13.406;2023-04-19T13:29:35;17.00;33.80
75517;DHT22;64097;52.548;13.406;2023-04-19T13:32:02;17.10;33.60
75517;DHT22;64097;52.548;13.406;2023-04-19T13:34:32;17.10;33.30
75517;DHT22;64097;52.548;13.406;2023-04-19T13:36:58;17.10;33.80
75517;DHT22;64097;52.548;13.406;2023-04-19T13:39:24;17.20;33.70
75517;DHT22;64097;52.548;13.406;2023-04-19T13:41:50;17.30;33.70
75517;DHT22;64097;52.548;13.406;2023-04-19T13:44:16;17.30;33.40
75517;DHT22;64097;52.548;13.406;2023-04-19T13:46:41;17.30;33.50
75517;DHT22;64097;52.548;13.406;2023-04-19T13:49:08;17.20;33.30
75517;DHT22;64097;52.548;13.406;2023-04-19T13:51:34;17.20;33.60
75517;DHT22;64097;52.548;13.406;2023-04-19T13:53:59;17.10;33.90
75517;DHT22;64097;52.548;13.406;2023-04-19T13:56:26;17.10;33.80
75517;DHT22;64097;52.548;13.406;2023-04-19T13:58:51;17.10;34.20
